Time;durP1;ratioP1;P1;durP2;ratioP2;P2;SDS_P1;SDS_P2;PMS_P1;PMS_P2;Temp;Humidity;BMP_temperature;BMP_pressure;BME280_temperature;BME280_humidity;BME280_pressure;Samples;Min_cycle;Max_cycle;Signal;HPM_P1;HPM_P2
2022/09/27 00:01:59;;;;;;;5.30;4.20;;;;;;;19.16;69.06;93730.09;4997396;28;20258;-80
2022/09/27 00:04:26;;;;;;;5.80;3.63;;;;;;;19.17;69.30;93726.50;5011624;28;20191;-83
2022/09/27 00:06:54;;;;;;;4.40;4.00;;;;;;;19.16;69.76;93717.94;5011830;28;20207;-80
2022/09/27 00:09:20;;;;;;;4.40;3.63;;;;;;;19.15;69.71;93731.13;5000970;28;20680;-81
2022/09/27 00:11:47;;;;;;;5.87;3.90;;;;;;;19.14;69.79;93727.75;4999046;28;20291;-80
2022/09/27 00:14:16;;;;;;;4.30;3.87;;;;;;;19.11;69.75;93745.50;5010854;28;20608;-83
2022/09/27 00:16:45;;;;;;;4.77;3.70;;;;;;;19.13;69.59;93748.66;5011044;28;20228;-81
2022/09/27 00:19:14;;;;;;;4.73;3.60;;;;;;;19.00;69.43;93742.63;5010839;28;20196;-82
2022/09/27 00:21:42;;;;;;;5.43;3.83;;;;;;;19.12;69.55;93771.19;5011216;28;20187;-81
2022/09/27 00:24:12;;;;;;;4.23;3.87;;;;;;;19.06;69.55;93746.16;5010564;28;20232;-81
2022/09/27 00:26:39;;;;;;;4.93;3.53;;;;;;;19.02;69.46;93743.19;4996263;28;20197;-83
2022/09/27 00:29:06;;;;;;;6.17;3.83;;;;;;;19.11;69.75;93761.84;4991168;28;20196;-81
2022/09/27 00:31:33;;;;;;;5.63;3.83;;;;;;;19.08;69.63;93733.75;4991490;28;20189;-82
2022/09/27 00:34:03;;;;;;;4.43;4.03;;;;;;;19.09;69.77;93729.41;4991404;28;20197;-81
2022/09/27 00:36:30;;;;;;;4.27;3.87;;;;;;;19.05;70.33;93737.59;4991481;28;20212;-80
2022/09/27 00:38:59;;;;;;;4.33;3.60;;;;;;;18.99;70.44;93729.84;4992512;28;20708;-81
2022/09/27 00:41:28;;;;;;;4.07;3.70;;;;;;;19.03;70.26;93731.03;5005567;28;20256;-81
2022/09/27 00:43:57;;;;;;;4.13;3.77;;;;;;;19.03;70.13;93733.63;5013301;28;20185;-81
2022/09/27 00:46:29;;;;;;;7.10;4.17;;;;;;;18.96;70.27;93719.94;5032253;28;20185;-81
2022/09/27 00:49:08;;;;;;;4.43;3.90;;;;;;;19.01;70.26;93712.31;5033125;28;20256;-81
2022/09/27 00:51:37;;;;;;;3.57;3.33;;;;;;;19.00;70.14;93716.72;5029180;28;20203;-81
2022/09/27 00:54:07;;;;;;;5.97;4.17;;;;;;;18.98;70.34;93721.28;5010118;28;20236;-81
2022/09/27 00:56:37;;;;;;;5.20;4.03;;;;;;;18.93;70.24;93713.38;4996997;28;20248;-82
2022/09/27 00:59:09;;;;;;;4.57;3.80;;;;;;;18.95;70.26;93706.16;4993237;28;20192;-81
2022/09/27 01:01:36;;;;;;;4.43;4.03;;;;;;;18.86;70.81;93699.69;4992278;28;20193;-82
2022/09/27 01:04:07;;;;;;;4.50;4.00;;;;;;;18.91;70.82;93715.41;4992212;28;20200;-81
2022/09/27 01:06:36;;;;;;;5.73;4.00;;;;;;;18.89;70.50;93716.59;4996792;28;20732;-82
2022/09/27 01:09:03;;;;;;;6.70;3.77;;;;;;;18.85;71.04;93716.22;5014412;28;20196;-82
2022/09/27 01:11:39;;;;;;;5.87;3.97;;;;;;;18.86;70.99;93717.81;4998586;28;20271;-82
2022/09/27 01:14:35;;;;;;;4.33;3.67;;;;;;;18.84;71.39;93711.28;5011553;28;20238;-80
2022/09/27 01:17:15;;;;;;;6.87;3.83;;;;;;;18.79;71.88;93691.19;5027327;28;20257;-80
2022/09/27 01:20:07;;;;;;;4.53;3.90;;;;;;;18.75;71.89;93683.03;5018310;28;20184;-81
2022/09/27 01:22:42;;;;;;;4.97;3.80;;;;;;;18.74;72.01;93696.22;4995922;28;20196;-82
2022/09/27 01:25:29;;;;;;;4.93;4.13;;;;;;;18.66;72.04;93686.09;4999875;28;20200;-80
2022/09/27 01:28:15;;;;;;;4.67;4.27;;;;;;;18.71;72.02;93705.19;5018429;28;20207;-82
2022/09/27 01:30:48;;;;;;;4.87;4.47;;;;;;;18.70;72.24;93708.00;5025824;28;20185;-83
2022/09/27 01:33:25;;;;;;;3.43;3.17;;;;;;;18.69;72.06;93702.00;5028410;28;20266;-79
2022/09/27 01:36:11;;;;;;;4.00;3.70;;;;;;;18.70;71.88;93715.78;5030934;28;20212;-81
2022/09/27 01:38:52;;;;;;;4.50;4.10;;;;;;;18.69;72.04;93698.59;5028827;28;20714;-82
2022/09/27 01:41:29;;;;;;;5.20;4.00;;;;;;;18.67;72.35;93716.94;5025359;28;20215;-81
2022/09/27 01:44:02;;;;;;;4.70;4.20;;;;;;;18.61;71.94;93702.25;5029302;28;20219;-81
2022/09/27 01:46:38;;;;;;;5.37;4.03;;;;;;;18.67;72.13;93713.56;5035694;28;20184;-81
2022/09/27 01:49:10;;;;;;;4.57;3.90;;;;;;;18.65;72.23;93712.97;5031762;28;20195;-81
2022/09/27 01:51:43;;;;;;;4.77;4.13;;;;;;;18.66;72.07;93712.00;5026012;28;20196;-83
2022/09/27 01:54:16;;;;;;;5.43;4.10;;;;;;;18.65;72.01;93695.66;5022211;28;20598;-84
2022/09/27 01:56:48;;;;;;;4.57;4.17;;;;;;;18.66;72.21;93696.44;5013989;28;20623;-80
2022/09/27 01:59:21;;;;;;;4.73;3.63;;;;;;;18.62;72.10;93690.91;5013776;28;20193;-80
2022/09/27 02:01:52;;;;;;;4.83;3.90;;;;;;;18.63;72.28;93681.31;5005458;28;20193;-81
2022/09/27 02:04:24;;;;;;;8.03;3.87;;;;;;;18.58;72.33;93686.34;5010546;28;20189;-82
2022/09/27 02:06:58;;;;;;;5.57;3.67;;;;;;;18.55;72.55;93678.00;5024838;28;20284;-83
2022/09/27 02:09:30;;;;;;;4.20;3.60;;;;;;;18.61;72.58;93681.56;5029388;28;20272;-81
2022/09/27 02:12:03;;;;;;;4.10;3.60;;;;;;;18.60;72.44;93674.75;5027747;28;20734;-83
2022/09/27 02:14:35;;;;;;;5.57;4.37;;;;;;;18.60;72.52;93655.84;5029385;28;20663;-81
2022/09/27 02:17:16;;;;;;;5.00;3.77;;;;;;;18.60;72.86;93669.59;5029642;28;20227;-82
2022/09/27 02:19:54;;;;;;;4.03;3.70;;;;;;;18.52;72.62;93654.31;5022014;28;20631;-81
2022/09/27 02:22:27;;;;;;;4.87;4.30;;;;;;;18.53;72.59;93642.97;5016388;28;20188;-80
2022/09/27 02:24:58;;;;;;;4.97;3.73;;;;;;;18.56;72.70;93634.75;5014395;28;20189;-81
2022/09/27 02:27:29;;;;;;;4.10;3.80;;;;;;;18.57;72.56;93628.59;5017588;28;20200;-80
2022/09/27 02:30:02;;;;;;;4.80;3.70;;;;;;;18.54;72.78;93619.44;5018997;28;20192;-82
2022/09/27 02:32:31;;;;;;;7.07;4.67;;;;;;;18.57;72.83;93620.84;5013075;28;20199;-81
2022/09/27 02:35:02;;;;;;;4.83;3.67;;;;;;;18.56;72.99;93627.00;5013716;28;20199;-81
2022/09/27 02:37:29;;;;;;;7.20;4.60;;;;;;;18.51;73.09;93619.06;5015143;28;20228;-81
2022/09/27 02:40:03;;;;;;;4.47;4.07;;;;;;;18.43;73.11;93578.72;5013269;28;20619;-82
2022/09/27 02:42:31;;;;;;;4.10;3.70;;;;;;;18.50;73.45;93633.81;5003651;28;20268;-83
2022/09/27 02:44:58;;;;;;;4.63;3.60;;;;;;;18.43;73.39;93616.75;4995225;28;20201;-82
2022/09/27 02:47:44;;;;;;;3.67;3.37;;;;;;;18.50;73.27;93643.38;4994994;28;20185;-82
2022/09/27 02:50:32;;;;;;;3.87;3.57;;;;;;;18.50;73.38;93623.47;4994810;28;20185;-84
2022/09/27 02:53:07;;;;;;;3.93;3.63;;;;;;;18.46;73.36;93635.25;4994829;28;20251;-83
2022/09/27 02:55:45;;;;;;;5.60;3.80;;;;;;;18.44;73.69;93639.84;4995079;28;20193;-82
2022/09/27 02:58:24;;;;;;;4.50;3.67;;;;;;;18.47;73.65;93652.34;5008119;28;20185;-81
2022/09/27 03:00:59;;;;;;;4.13;3.30;;;;;;;18.48;73.67;93643.59;5034512;28;20199;-83
2022/09/27 03:03:35;;;;;;;4.30;3.90;;;;;;;18.45;73.46;93604.41;5030684;28;20252;-83
2022/09/27 03:06:05;;;;;;;3.40;3.10;;;;;;;18.47;73.56;93608.34;5034202;28;20188;-81
2022/09/27 03:08:32;;;;;;;4.03;3.63;;;;;;;18.44;73.45;93601.03;5027432;28;20197;-81
2022/09/27 03:10:59;;;;;;;4.40;3.70;;;;;;;18.46;73.22;93577.50;5002414;28;20197;-82
2022/09/27 03:13:27;;;;;;;4.10;3.70;;;;;;;18.32;73.32;93563.91;5002091;28;20204;-81
2022/09/27 03:15:53;;;;;;;4.07;3.70;;;;;;;18.47;73.35;93576.50;4995499;28;20537;-82
2022/09/27 03:18:20;;;;;;;4.17;3.77;;;;;;;18.46;73.57;93573.13;4999671;28;20197;-82
2022/09/27 03:20:49;;;;;;;4.17;3.77;;;;;;;18.26;73.56;93539.66;4997585;28;20224;-83
2022/09/27 03:23:16;;;;;;;4.43;3.47;;;;;;;18.47;73.43;93564.34;5016604;28;20230;-82
2022/09/27 03:25:42;;;;;;;4.23;3.60;;;;;;;18.44;73.55;93569.97;5014831;28;20196;-82
2022/09/27 03:28:09;;;;;;;4.40;4.00;;;;;;;18.41;73.37;93561.81;5013714;28;20275;-83
2022/09/27 03:30:36;;;;;;;4.93;4.10;;;;;;;18.48;73.39;93573.72;5012071;28;20185;-82
2022/09/27 03:33:03;;;;;;;5.03;4.30;;;;;;;18.49;73.55;93571.91;5012148;28;20189;-82
2022/09/27 03:35:30;;;;;;;4.20;3.80;;;;;;;18.49;73.30;93577.88;5011341;28;20202;-82
2022/09/27 03:37:59;;;;;;;4.77;4.23;;;;;;;18.50;73.69;93579.44;4991975;28;20248;-81
2022/09/27 03:40:25;;;;;;;4.97;3.77;;;;;;;18.50;73.44;93568.31;4991894;28;20196;-81
2022/09/27 03:42:52;;;;;;;4.33;3.93;;;;;;;18.51;73.62;93562.91;5004785;28;20267;-82
2022/09/27 03:45:19;;;;;;;4.63;3.77;;;;;;;18.43;73.29;93559.81;5008914;28;20566;-82
2022/09/27 03:47:46;;;;;;;4.27;3.87;;;;;;;18.51;73.77;93564.72;4992067;28;20640;-84
2022/09/27 03:50:14;;;;;;;5.90;3.97;;;;;;;18.27;73.80;93520.53;4991114;28;20192;-82
2022/09/27 03:52:42;;;;;;;4.23;3.83;;;;;;;18.52;73.67;93569.69;4992004;28;20193;-81
2022/09/27 03:55:12;;;;;;;4.70;4.20;;;;;;;18.51;73.90;93581.03;4991832;28;20656;-82
2022/09/27 03:57:39;;;;;;;5.97;4.20;;;;;;;18.51;73.90;93568.09;4992398;28;20220;-83
2022/09/27 04:00:07;;;;;;;5.20;4.73;;;;;;;18.52;73.92;93566.28;4992773;28;20193;-83
2022/09/27 04:02:34;;;;;;;4.30;3.90;;;;;;;18.46;73.68;93570.53;5004883;28;20208;-83
2022/09/27 04:05:01;;;;;;;4.37;3.97;;;;;;;18.52;73.85;93572.28;5011995;28;20601;-83
2022/09/27 04:07:29;;;;;;;5.27;4.13;;;;;;;18.52;73.84;93574.88;5004062;28;20192;-83
2022/09/27 04:09:56;;;;;;;6.00;4.30;;;;;;;18.48;74.00;93568.53;4992023;28;20252;-84
2022/09/27 04:12:24;;;;;;;4.27;3.90;;;;;;;18.53;74.05;93557.53;5017547;28;20200;-83
2022/09/27 04:14:51;;;;;;;4.47;3.97;;;;;;;18.47;74.12;93556.56;5010899;28;20184;-82
2022/09/27 04:17:18;;;;;;;4.50;4.10;;;;;;;18.54;73.96;93566.88;4996022;28;20215;-84
2022/09/27 04:19:45;;;;;;;5.57;4.93;;;;;;;18.50;74.08;93561.34;4990686;28;20208;-84
2022/09/27 04:22:14;;;;;;;4.80;4.40;;;;;;;18.55;73.89;93565.88;4990890;28;20283;-83
2022/09/27 04:24:41;;;;;;;4.40;3.90;;;;;;;18.55;74.00;93571.03;4997014;28;20188;-83
2022/09/27 04:27:08;;;;;;;6.90;4.30;;;;;;;18.61;75.95;93565.03;5009418;28;20184;-85
2022/09/27 04:29:36;;;;;;;10.40;4.50;;;;;;;18.54;75.81;93539.19;5009841;28;20181;-81
2022/09/27 04:32:03;;;;;;;5.27;4.53;;;;;;;18.70;75.88;93557.78;5009427;28;20688;-80
2022/09/27 04:37:14;;;;;;;5.03;4.53;;;;;;;18.72;76.35;93571.31;5006424;28;20685;-81
2022/09/27 04:39:41;;;;;;;6.33;4.97;;;;;;;18.72;76.30;93560.94;4974084;28;20201;-82
2022/09/27 04:42:08;;;;;;;5.03;4.50;;;;;;;18.72;76.27;93558.34;4979601;28;20288;-82
2022/09/27 04:44:36;;;;;;;4.83;4.43;;;;;;;18.73;76.25;93549.56;4975804;28;20194;-79
2022/09/27 04:47:03;;;;;;;5.13;3.40;;;;;;;18.94;85.32;93567.28;4974899;28;20204;-76
2022/09/27 04:49:30;;;;;;;4.53;3.27;;;;;;;19.05;85.36;93551.00;4974038;28;20197;-83
2022/09/27 04:51:57;;;;;;;9.73;3.83;;;;;;;19.35;84.81;93573.59;4974778;28;20194;-79
2022/09/27 04:54:24;;;;;;;7.13;3.60;;;;;;;19.57;83.89;93571.31;4969561;28;20489;-82
2022/09/27 04:56:51;;;;;;;11.20;4.10;;;;;;;19.75;83.12;93570.47;4954816;29;20226;-80
2022/09/27 04:59:18;;;;;;;8.50;4.40;;;;;;;19.90;82.35;93570.84;4955474;29;20226;-83
2022/09/27 05:01:47;;;;;;;5.33;4.60;;;;;;;20.03;81.51;93565.47;4954762;29;20190;-82
2022/09/27 05:04:14;;;;;;;4.43;4.03;;;;;;;20.15;80.55;93567.28;4956234;28;20234;-80
2022/09/27 05:06:41;;;;;;;10.90;4.00;;;;;;;20.21;80.21;93548.22;4954930;29;20678;-80
2022/09/27 05:09:08;;;;;;;10.13;3.53;;;;;;;20.31;79.87;93535.47;4955171;29;20225;-80
2022/09/27 05:11:36;;;;;;;12.63;4.50;;;;;;;20.43;79.59;93548.47;4955817;29;20265;-80
2022/09/27 05:14:03;;;;;;;8.13;4.53;;;;;;;20.52;79.74;93547.91;4956958;29;20193;-81
2022/09/27 05:16:30;;;;;;;15.60;4.43;;;;;;;20.61;80.23;93544.97;4956727;29;20201;-78
2022/09/27 05:18:59;;;;;;;5.33;3.50;;;;;;;20.69;80.46;93539.44;4955481;29;20210;-85
2022/09/27 05:21:26;;;;;;;9.23;4.00;;;;;;;20.72;79.33;93529.34;4965422;28;20196;-81
2022/09/27 05:23:53;;;;;;;8.57;4.10;;;;;;;20.85;79.03;93538.72;4973578;28;20241;-82
2022/09/27 05:26:20;;;;;;;8.93;6.30;;;;;;;20.91;79.04;93537.81;4975998;28;20190;-80
2022/09/27 05:28:47;;;;;;;8.20;7.10;;;;;;;20.97;79.83;93521.28;4973562;28;20215;-81
2022/09/27 05:31:15;;;;;;;8.77;5.37;;;;;;;21.05;79.31;93518.31;4973771;28;20200;-81
2022/09/27 05:33:42;;;;;;;7.43;4.90;;;;;;;21.09;78.72;93528.28;4974727;28;20205;-80
2022/09/27 05:36:10;;;;;;;5.40;4.77;;;;;;;21.10;78.51;93529.84;4973287;28;20201;-80
2022/09/27 05:38:38;;;;;;;4.75;4.07;;;;;;;21.19;78.09;93536.25;4987031;28;20712;-82
2022/09/27 05:41:05;;;;;;;7.85;5.05;;;;;;;21.18;77.44;93553.66;4993288;28;20197;-81
2022/09/27 05:43:32;;;;;;;8.07;5.07;;;;;;;21.15;76.52;93554.13;4993239;28;20219;-81
2022/09/27 05:46:00;;;;;;;8.55;6.13;;;;;;;21.06;76.52;93542.50;4993152;28;20649;-81
2022/09/27 05:48:29;;;;;;;14.57;5.20;;;;;;;20.97;76.24;93543.91;4986375;28;20193;-80
2022/09/27 05:50:56;;;;;;;11.20;5.20;;;;;;;20.88;76.01;93543.47;4973739;28;20204;-82
2022/09/27 05:53:24;;;;;;;7.17;4.90;;;;;;;20.82;76.01;93541.00;4975203;28;20626;-81
2022/09/27 05:55:51;;;;;;;5.87;4.80;;;;;;;20.67;75.82;93537.03;4986675;28;20193;-82
2022/09/27 05:58:18;;;;;;;8.43;5.40;;;;;;;20.56;75.55;93540.47;4991503;28;20213;-82
2022/09/27 06:00:45;;;;;;;8.30;5.07;;;;;;;20.53;75.68;93546.09;4991050;28;20220;-81
2022/09/27 06:03:13;;;;;;;8.48;5.15;;;;;;;20.41;75.66;93548.66;4991339;28;20541;-83
2022/09/27 06:05:40;;;;;;;7.50;5.13;;;;;;;20.15;75.59;93530.94;4990928;28;20197;-81
2022/09/27 06:08:09;;;;;;;6.17;5.00;;;;;;;20.16;75.64;93538.50;4990812;28;20197;-80
2022/09/27 06:10:38;;;;;;;6.33;5.80;;;;;;;20.26;75.61;93554.31;4979667;28;20580;-78
2022/09/27 06:13:07;;;;;;;6.40;5.87;;;;;;;20.20;75.49;93534.44;4990817;28;20220;-78
2022/09/27 06:15:35;;;;;;;7.53;5.40;;;;;;;20.22;75.54;93549.81;4990926;28;20639;-79
2022/09/27 06:18:08;;;;;;;6.17;5.60;;;;;;;20.18;75.42;93544.28;4990186;28;20252;-77
2022/09/27 06:20:36;;;;;;;7.53;5.50;;;;;;;20.22;75.20;93555.78;4990423;28;20203;-78
2022/09/27 06:23:07;;;;;;;5.77;5.23;;;;;;;20.26;75.04;93549.13;4990487;28;20205;-82
2022/09/27 06:25:34;;;;;;;8.50;5.70;;;;;;;20.35;74.78;93557.38;4990306;28;20255;-80
2022/09/27 06:28:03;;;;;;;6.93;5.63;;;;;;;20.41;74.26;93543.47;4991056;28;20207;-79
2022/09/27 06:30:31;;;;;;;8.77;5.90;;;;;;;20.48;74.26;93540.81;4990433;28;20193;-79
2022/09/27 06:33:00;;;;;;;7.40;5.53;;;;;;;20.50;74.23;93543.94;4990762;28;20212;-80
2022/09/27 06:35:28;;;;;;;7.07;5.13;;;;;;;20.49;74.35;93561.34;4990671;28;20190;-80
2022/09/27 06:37:55;;;;;;;6.37;5.60;;;;;;;20.46;74.34;93555.78;4989538;28;20230;-79
2022/09/27 06:40:25;;;;;;;8.50;5.40;;;;;;;20.42;74.23;93531.28;4990261;28;20262;-77
2022/09/27 06:42:52;;;;;;;8.00;5.73;;;;;;;20.42;74.45;93544.25;4990173;28;20687;-80
2022/09/27 06:45:21;;;;;;;7.27;5.67;;;;;;;20.38;74.31;93543.94;4990735;28;20204;-79
2022/09/27 06:47:48;;;;;;;9.17;6.23;;;;;;;20.36;74.29;93548.56;4990278;28;20288;-80
2022/09/27 06:50:16;;;;;;;6.90;5.93;;;;;;;20.34;74.51;93552.41;4990241;28;20224;-79
2022/09/27 06:52:47;;;;;;;6.60;5.90;;;;;;;20.31;74.55;93548.44;4989017;28;20200;-79
2022/09/27 06:55:15;;;;;;;6.20;5.60;;;;;;;20.21;74.61;93528.25;4990074;28;20197;-80
2022/09/27 07:00:27;;;;;;;7.77;5.37;;;;;;;20.16;74.67;93529.91;4989639;28;20187;-79
2022/09/27 07:02:59;;;;;;;8.37;6.10;;;;;;;20.19;74.76;93550.25;4988844;28;20193;-79
2022/09/27 07:05:28;;;;;;;6.67;5.33;;;;;;;20.16;74.65;93554.06;4988896;28;20265;-78
2022/09/27 07:07:56;;;;;;;10.13;6.37;;;;;;;20.18;74.53;93561.66;4989239;28;20230;-78
2022/09/27 07:10:24;;;;;;;7.53;6.07;;;;;;;20.19;74.44;93550.25;4990215;28;20193;-81
2022/09/27 07:12:51;;;;;;;8.63;5.33;;;;;;;20.20;74.39;93552.59;4994609;28;20595;-78
2022/09/27 07:15:19;;;;;;;6.73;5.60;;;;;;;20.23;74.35;93559.16;4990190;28;20207;-79
2022/09/27 07:17:48;;;;;;;6.80;5.80;;;;;;;20.24;74.55;93561.53;4989514;28;20232;-80
2022/09/27 07:20:15;;;;;;;6.87;6.17;;;;;;;20.25;74.42;93544.16;4988265;28;20208;-78
2022/09/27 07:22:42;;;;;;;8.40;6.33;;;;;;;20.25;74.33;93557.13;4986587;28;20190;-80
2022/09/27 07:25:10;;;;;;;7.13;6.43;;;;;;;20.26;74.36;93564.72;4989347;28;20204;-79
2022/09/27 07:27:36;;;;;;;6.53;5.93;;;;;;;20.24;74.14;93556.34;4989610;28;20201;-79
2022/09/27 07:30:06;;;;;;;7.73;6.43;;;;;;;20.31;74.17;93569.22;4989652;28;20197;-80
2022/09/27 07:32:34;;;;;;;7.37;6.23;;;;;;;20.36;74.01;93565.94;4991447;28;20189;-79
2022/09/27 07:35:02;;;;;;;7.13;6.43;;;;;;;20.14;74.00;93513.78;4990007;28;20197;-81
2022/09/27 07:37:32;;;;;;;8.27;6.73;;;;;;;20.45;74.01;93577.56;4989782;28;20228;-79
2022/09/27 07:39:59;;;;;;;7.47;6.67;;;;;;;20.44;73.84;93569.00;4986886;28;20201;-78
2022/09/27 07:42:27;;;;;;;9.37;6.83;;;;;;;20.42;74.03;93568.44;4988737;28;20201;-78
2022/09/27 07:44:54;;;;;;;6.57;5.97;;;;;;;20.43;74.01;93570.03;4990070;28;20276;-78
2022/09/27 07:47:22;;;;;;;8.17;6.67;;;;;;;20.46;73.98;93579.16;4989383;28;20219;-79
2022/09/27 07:49:50;;;;;;;8.17;6.60;;;;;;;20.48;73.97;93577.16;4988707;28;20196;-79
2022/09/27 07:52:19;;;;;;;6.97;6.27;;;;;;;20.47;73.98;93575.56;4989277;28;20344;-80
2022/09/27 07:54:46;;;;;;;9.37;7.17;;;;;;;20.45;73.76;93583.56;4987655;28;20197;-79
2022/09/27 07:57:13;;;;;;;8.83;7.23;;;;;;;20.38;73.86;93572.50;4989389;28;20193;-80
2022/09/27 07:59:40;;;;;;;12.07;6.87;;;;;;;20.26;74.16;93559.50;4989515;28;20204;-79
2022/09/27 08:02:10;;;;;;;7.53;6.73;;;;;;;20.27;74.46;93566.28;4988605;28;20679;-81
2022/09/27 08:04:36;;;;;;;9.43;6.77;;;;;;;20.28;74.24;93560.06;4989012;28;20276;-80
2022/09/27 08:07:03;;;;;;;8.23;6.10;;;;;;;20.22;74.72;93549.81;4988764;28;20209;-81
2022/09/27 08:09:32;;;;;;;9.37;7.57;;;;;;;20.23;74.62;93543.59;4988385;28;20280;-81
2022/09/27 08:11:58;;;;;;;7.67;6.87;;;;;;;20.21;74.64;93536.03;4988787;28;20201;-81
2022/09/27 08:14:25;;;;;;;8.57;7.67;;;;;;;20.22;74.63;93547.22;4988374;28;20197;-79
2022/09/27 08:16:52;;;;;;;9.03;6.77;;;;;;;20.23;74.77;93548.78;4988596;28;20205;-81
2022/09/27 08:19:21;;;;;;;12.33;7.23;;;;;;;20.25;74.40;93542.38;4988967;28;20624;-78
2022/09/27 08:21:47;;;;;;;7.97;6.40;;;;;;;20.31;74.36;93543.25;4965195;28;20197;-80
2022/09/27 08:24:15;;;;;;;8.03;6.87;;;;;;;20.36;74.22;93555.56;4988531;28;20193;-79
2022/09/27 08:26:43;;;;;;;7.77;6.83;;;;;;;20.38;73.96;93553.53;4988870;28;20296;-80
2022/09/27 08:29:11;;;;;;;9.50;6.53;;;;;;;20.41;74.38;93555.66;4988903;28;20207;-79
2022/09/27 08:31:38;;;;;;;11.23;6.53;;;;;;;20.48;74.21;93548.59;4984492;28;20527;-80
2022/09/27 08:34:05;;;;;;;7.70;6.90;;;;;;;20.52;73.93;93536.75;4988609;28;20205;-81
2022/09/27 08:36:34;;;;;;;7.20;6.50;;;;;;;20.63;73.89;93527.34;4989409;28;20204;-79
2022/09/27 08:39:04;;;;;;;7.67;6.60;;;;;;;20.86;73.41;93513.53;4988709;28;20303;-81
2022/09/27 08:41:37;;;;;;;7.87;6.50;;;;;;;21.18;73.71;93535.47;4989903;28;20189;-80
2022/09/27 08:44:19;;;;;;;7.67;6.07;;;;;;;;;;4987520;28;20251;-80
2022/09/27 08:46:59;;;;;;;6.80;6.20;;;;;;;21.68;72.81;93534.06;4984933;28;20265;-81
2022/09/27 08:49:34;;;;;;;7.72;6.00;;;;;;;21.85;72.31;93528.84;4989095;28;20617;-79
2022/09/27 08:52:06;;;;;;;6.65;5.95;;;;;;;22.01;71.88;93528.88;4989118;28;20931;-79
2022/09/27 08:54:37;;;;;;;7.60;5.85;;;;;;;22.20;71.20;93531.28;4987341;28;20211;-79
2022/09/27 08:57:10;;;;;;;7.15;6.47;;;;;;;22.35;71.22;93530.69;4989040;28;20201;-80
2022/09/27 08:59:43;;;;;;;6.72;6.13;;;;;;;22.58;70.59;93522.69;4988551;28;20225;-80
2022/09/27 09:02:18;;;;;;;7.63;5.80;;;;;;;22.88;70.15;93511.06;4985608;28;20285;-80
2022/09/27 09:04:47;;;;;;;7.65;6.10;;;;;;;23.16;70.10;93515.34;4983949;28;20614;-80
2022/09/27 09:07:29;;;;;;;7.97;6.15;;;;;;;23.44;69.68;93514.31;4989314;28;20667;-80
2022/09/27 09:10:03;;;;;;;5.95;5.30;;;;;;;23.72;69.15;93510.72;4989381;28;20260;-80
2022/09/27 09:12:47;;;;;;;6.13;5.53;;;;;;;24.04;68.31;93502.88;4989998;28;20215;-80
2022/09/27 09:15:29;;;;;;;6.10;5.45;;;;;;;24.48;67.61;93516.56;4983502;28;20320;-80
2022/09/27 09:18:15;;;;;;;6.65;5.78;;;;;;;24.85;67.01;93518.31;4989870;28;20651;-79
2022/09/27 09:20:54;;;;;;;6.40;5.70;;;;;;;25.13;66.36;93517.16;4986333;28;20255;-81
2022/09/27 09:23:40;;;;;;;5.72;5.20;;;;;;;25.29;66.11;93499.66;4988432;28;20659;-81
2022/09/27 09:26:15;;;;;;;6.88;5.28;;;;;;;25.41;65.55;93517.75;4994073;28;20235;-79
2022/09/27 09:29:00;;;;;;;7.22;5.22;;;;;;;25.47;65.08;93488.69;5000945;28;20191;-80
2022/09/27 09:31:38;;;;;;;8.70;5.57;;;;;;;25.70;64.80;93490.03;5003152;28;20272;-80
2022/09/27 09:34:14;;;;;;;6.93;5.47;;;;;;;25.80;64.71;93494.53;4993149;28;20189;-80
2022/09/27 09:36:45;;;;;;;6.10;5.50;;;;;;;25.88;64.42;93480.13;4994125;28;20485;-81
2022/09/27 09:39:17;;;;;;;10.30;6.00;;;;;;;26.01;63.88;93498.72;4990007;28;20239;-81
2022/09/27 09:41:55;;;;;;;8.65;5.05;;;;;;;26.08;64.01;93493.22;4990487;28;20200;-83
2022/09/27 09:44:28;;;;;;;5.90;5.40;;;;;;;26.17;63.49;93498.72;4993845;28;20215;-82
2022/09/27 09:47:01;;;;;;;6.25;5.22;;;;;;;26.26;62.75;93505.00;4993649;28;20647;-81
2022/09/27 09:49:32;;;;;;;7.45;6.03;;;;;;;26.09;63.04;93488.78;4995180;28;20200;-81
2022/09/27 09:52:02;;;;;;;9.43;5.53;;;;;;;26.13;62.61;93476.72;4993501;28;20295;-80
2022/09/27 09:54:35;;;;;;;6.65;5.07;;;;;;;26.23;62.53;93501.06;4994760;28;20205;-81
2022/09/27 09:57:06;;;;;;;4.82;4.43;;;;;;;26.22;62.50;93512.59;5000224;28;20280;-80
2022/09/27 09:59:41;;;;;;;5.82;5.20;;;;;;;26.24;62.05;93496.59;4992164;28;20236;-81
2022/09/27 10:02:23;;;;;;;5.40;4.90;;;;;;;26.23;61.84;93503.69;4988698;28;20224;-80
2022/09/27 10:04:50;;;;;;;6.45;5.20;;;;;;;26.28;61.97;93490.56;4997059;28;20200;-80
2022/09/27 10:07:22;;;;;;;6.70;5.05;;;;;;;26.29;61.57;93496.59;5007535;28;20204;-82
2022/09/27 10:09:49;;;;;;;9.05;4.65;;;;;;;26.29;61.63;93504.47;5005858;28;20208;-80
2022/09/27 10:12:16;;;;;;;5.75;5.25;;;;;;;26.26;61.63;93489.28;5003155;28;20193;-79
2022/09/27 10:14:46;;;;;;;8.00;5.25;;;;;;;26.36;61.72;93486.63;4994990;28;20195;-81
2022/09/27 10:17:19;;;;;;;5.65;4.70;;;;;;;26.31;61.31;93467.50;4989248;28;20200;-79
2022/09/27 10:19:48;;;;;;;7.60;4.88;;;;;;;26.45;61.02;93464.09;4993041;28;20249;-80
2022/09/27 10:22:22;;;;;;;6.07;4.50;;;;;;;26.60;60.60;93476.41;4992290;28;20197;-80
2022/09/27 10:24:58;;;;;;;4.95;4.45;;;;;;;26.77;60.58;93483.94;4991503;28;20582;-79
2022/09/27 10:27:26;;;;;;;5.75;4.60;;;;;;;26.91;60.29;93482.31;4992066;28;20220;-80
2022/09/27 10:30:00;;;;;;;5.25;4.43;;;;;;;27.02;59.73;93481.22;4991499;28;20601;-82
2022/09/27 10:32:35;;;;;;;4.32;3.75;;;;;;;27.09;59.83;93485.41;4991243;28;20196;-80
2022/09/27 10:35:21;;;;;;;6.13;4.45;;;;;;;27.06;59.74;93483.28;4990719;28;20200;-81
2022/09/27 10:37:48;;;;;;;5.63;4.57;;;;;;;27.00;59.22;93480.69;4987540;28;20311;-81
2022/09/27 10:40:30;;;;;;;5.28;4.22;;;;;;;26.95;59.23;93472.06;4990386;28;20251;-81
2022/09/27 10:42:57;;;;;;;4.70;4.30;;;;;;;26.94;59.16;93473.91;4990345;28;20192;-82
2022/09/27 10:45:31;;;;;;;7.20;4.80;;;;;;;26.98;59.56;93472.31;4990536;28;20648;-80
2022/09/27 10:48:01;;;;;;;5.25;4.68;;;;;;;27.12;58.72;93466.53;4989927;28;20230;-80
2022/09/27 10:50:30;;;;;;;5.00;4.60;;;;;;;27.29;58.66;93455.63;4990574;28;20201;-81
2022/09/27 10:53:06;;;;;;;5.05;4.20;;;;;;;27.37;58.15;93453.22;4990186;28;20200;-80
2022/09/27 10:55:36;;;;;;;5.00;4.60;;;;;;;27.45;58.17;93442.16;4990606;28;20711;-79
2022/09/27 10:58:04;;;;;;;5.22;4.22;;;;;;;27.54;57.80;93425.81;4990050;28;20680;-81
2022/09/27 11:00:33;;;;;;;5.25;4.35;;;;;;;27.55;57.92;93420.31;4991622;28;20213;-80
2022/09/27 11:03:05;;;;;;;5.25;4.40;;;;;;;27.55;57.88;93420.31;4990613;28;20195;-79
2022/09/27 11:05:35;;;;;;;7.28;4.30;;;;;;;27.52;57.37;93420.84;4991440;28;20208;-80
2022/09/27 11:08:22;;;;;;;4.72;4.32;;;;;;;27.48;57.44;93419.81;4993938;28;21173;-82
2022/09/27 11:11:02;;;;;;;7.93;4.43;;;;;;;27.43;57.10;93406.72;4990840;28;20232;-80
2022/09/27 11:13:31;;;;;;;5.25;4.28;;;;;;;27.38;57.38;93412.81;4990140;28;20185;-81
2022/09/27 11:16:21;;;;;;;4.03;3.60;;;;;;;27.15;57.08;93390.63;4990153;28;20283;-82
2022/09/27 11:19:02;;;;;;;4.55;4.15;;;;;;;27.30;57.23;93421.25;4989492;28;20233;-81
2022/09/27 11:21:35;;;;;;;4.85;4.43;;;;;;;27.34;57.03;93403.91;4990276;28;20193;-81
2022/09/27 11:24:20;;;;;;;5.45;4.40;;;;;;;27.34;57.10;93400.50;4990702;28;20284;-83
2022/09/27 11:26:59;;;;;;;4.15;3.75;;;;;;;27.42;56.98;93405.16;4990497;28;20193;-84
2022/09/27 11:29:36;;;;;;;4.38;3.97;;;;;;;27.51;57.20;93406.16;4990948;28;20563;-79
2022/09/27 11:32:18;;;;;;;5.22;3.63;;;;;;;27.56;56.62;93389.56;4990049;28;20209;-86
2022/09/27 11:35:13;;;;;;;4.13;3.67;;;;;;;27.70;56.33;93387.88;4986900;28;20188;-84
2022/09/27 11:37:52;;;;;;;5.90;3.95;;;;;;;27.78;56.42;93376.00;4989736;28;20228;-82
2022/09/27 11:40:29;;;;;;;4.05;3.67;;;;;;;27.79;56.22;93380.19;4989255;28;20224;-80
2022/09/27 11:43:16;;;;;;;4.55;4.05;;;;;;;27.73;56.37;93371.59;4989342;28;20192;-79
2022/09/27 11:45:55;;;;;;;4.68;4.18;;;;;;;27.83;56.09;93370.72;4988428;28;20191;-78
2022/09/27 11:48:36;;;;;;;3.67;3.38;;;;;;;27.83;55.98;93366.22;4987565;28;20200;-78
2022/09/27 11:51:13;;;;;;;6.53;4.00;;;;;;;27.81;55.80;93371.00;4988916;28;20734;-78
2022/09/27 11:54:04;;;;;;;3.80;3.50;;;;;;;27.80;55.75;93364.16;4985746;28;20243;-79
2022/09/27 11:56:45;;;;;;;4.82;3.92;;;;;;;27.80;55.42;93360.75;4988401;28;20656;-79
2022/09/27 11:59:41;;;;;;;4.22;3.63;;;;;;;27.80;55.74;93355.50;4986033;28;20293;-79